createdAt,value
2022-11-16T00:01:58.716Z,10.07
2022-11-16T02:44:45.022Z,10.02
2022-11-16T03:04:47.404Z,10.04
2022-11-16T03:25:00.041Z,9.79
2022-11-16T03:45:03.179Z,10.04
2022-11-16T04:05:30.392Z,9.97
2022-11-16T04:25:32.845Z,9.96
2022-11-16T04:45:54.132Z,9.89
2022-11-16T05:05:56.908Z,9.78
2022-11-16T05:25:59.621Z,9.80
2022-11-16T05:46:04.264Z,9.73
2022-11-16T06:06:08.720Z,9.82
2022-11-16T06:26:11.585Z,9.86
2022-11-16T06:46:14.533Z,9.97
2022-11-16T07:06:17.635Z,10.06
2022-11-16T07:26:20.065Z,10.16
2022-11-16T08:06:45.405Z,10.30
2022-11-16T08:26:47.837Z,10.37
2022-11-16T08:46:50.252Z,10.49
2022-11-16T09:27:09.870Z,10.69
2022-11-16T09:47:12.746Z,11.01
2022-11-16T10:07:15.405Z,10.89
2022-11-16T10:27:21.973Z,10.85
2022-11-16T11:07:41.703Z,10.56
2022-11-16T11:27:44.349Z,10.28
2022-11-16T11:48:02.469Z,10.31
2022-11-16T12:08:05.084Z,9.79
2022-11-16T12:28:08.584Z,7.95
2022-11-16T13:08:40.187Z,7.71
2022-11-16T13:28:42.645Z,7.77
2022-11-16T13:49:07.685Z,7.44
2022-11-16T14:09:10.264Z,6.99
2022-11-16T14:29:12.878Z,7.22
2022-11-16T14:49:15.349Z,7.30
2022-11-16T15:09:17.942Z,7.24
2022-11-16T15:29:21.264Z,6.98
2022-11-16T15:49:23.731Z,6.77
2022-11-16T16:09:26.220Z,6.73
2022-11-16T16:29:29.440Z,6.71
2022-11-16T16:49:32.112Z,6.55
2022-11-16T17:09:34.791Z,6.23
2022-11-16T17:29:37.444Z,6.09
2022-11-16T17:49:39.870Z,5.71
2022-11-16T18:09:42.513Z,5.64
2022-11-16T18:29:45.236Z,5.21
2022-11-16T18:49:47.696Z,5.35
2022-11-16T19:09:50.116Z,4.74
2022-11-16T19:29:52.508Z,4.16
2022-11-16T19:49:54.983Z,4.18
2022-11-16T20:09:57.685Z,3.35
2022-11-16T20:30:03.719Z,2.94
2022-11-16T20:50:09.436Z,2.68
2022-11-16T21:10:21.179Z,2.75
2022-11-16T21:30:23.914Z,2.93
2022-11-16T21:50:33.738Z,3.01
2022-11-16T22:10:36.385Z,2.86
2022-11-16T22:30:39.234Z,2.53
2022-11-16T22:50:41.881Z,2.48
2022-11-16T23:11:03.579Z,2.39
2022-11-16T23:31:06.339Z,2.83
2022-11-16T23:51:09.007Z,2.81
